Time;durP1;ratioP1;P1;durP2;ratioP2;P2;SDS_P1;SDS_P2;PMS_P1;PMS_P2;Temp;Humidity;BMP_temperature;BMP_pressure;BME280_temperature;BME280_humidity;BME280_pressure;Samples;Min_cycle;Max_cycle;Signal;HPM_P1;HPM_P2
2022/07/03 00:01:24;;;;;;;8.18;4.22;;;;;;;15.35;64.55;100756.95;1716349;82;20957;-82
2022/07/03 00:03:50;;;;;;;6.70;4.15;;;;;;;15.32;64.66;100753.22;1715516;81;21027;-82
2022/07/03 00:06:17;;;;;;;5.78;4.42;;;;;;;15.29;64.89;100752.68;1716403;82;21847;-82
2022/07/03 00:08:44;;;;;;;5.45;3.83;;;;;;;15.29;64.88;100750.86;1707719;82;21034;-82
2022/07/03 00:11:11;;;;;;;6.60;3.87;;;;;;;15.24;64.77;100757.08;1725917;82;20956;-82
2022/07/03 00:13:37;;;;;;;6.30;4.10;;;;;;;15.09;64.87;100747.88;1724620;81;21047;-82
2022/07/03 00:16:05;;;;;;;5.15;3.87;;;;;;;15.04;64.98;100746.13;1730240;81;20956;-82
2022/07/03 00:18:31;;;;;;;6.12;4.40;;;;;;;15.06;65.08;100742.85;1725831;81;21841;-83
2022/07/03 00:21:04;;;;;;;7.85;4.15;;;;;;;15.08;65.12;100733.73;1724680;81;20974;-83
2022/07/03 00:23:56;;;;;;;5.45;4.30;;;;;;;15.14;65.04;100733.64;1752826;80;20992;-83
2022/07/03 00:26:23;;;;;;;8.63;4.53;;;;;;;15.15;65.04;100727.34;1739328;81;20975;-83
2022/07/03 00:28:50;;;;;;;9.38;4.20;;;;;;;15.12;65.10;100727.14;1724377;83;20948;-83
2022/07/03 00:31:16;;;;;;;5.25;4.15;;;;;;;15.11;65.18;100733.45;1724641;81;21832;-81
2022/07/03 00:33:43;;;;;;;6.55;4.30;;;;;;;15.11;65.22;100733.94;1715193;81;21042;-80
2022/07/03 00:36:10;;;;;;;6.58;4.22;;;;;;;15.10;65.22;100726.94;1737093;80;21012;-81
2022/07/03 00:38:36;;;;;;;5.75;4.17;;;;;;;15.09;65.27;100718.61;1732750;81;21594;-81
2022/07/03 00:41:04;;;;;;;6.28;4.17;;;;;;;15.07;65.34;100730.73;1724554;81;21466;-81
2022/07/03 00:43:30;;;;;;;6.30;4.33;;;;;;;15.03;65.38;100731.14;1731720;81;22550;-81
2022/07/03 00:46:11;;;;;;;5.37;4.08;;;;;;;14.97;65.42;100735.23;1747213;81;20996;-81
2022/07/03 00:48:38;;;;;;;9.33;4.33;;;;;;;14.93;65.57;100731.64;1747638;81;21007;-81
2022/07/03 00:51:05;;;;;;;5.78;4.12;;;;;;;14.88;65.55;100729.42;1735196;81;21383;-82
2022/07/03 00:53:32;;;;;;;6.03;4.00;;;;;;;14.85;65.48;100726.53;1731873;81;20952;-81
2022/07/03 00:56:00;;;;;;;5.30;4.15;;;;;;;14.81;65.50;100720.32;1735112;81;21786;-82
2022/07/03 00:58:27;;;;;;;10.75;4.50;;;;;;;14.78;65.50;100724.59;1743154;81;20991;-81
2022/07/03 01:00:54;;;;;;;6.58;4.25;;;;;;;14.75;65.52;100730.17;1674079;81;20948;-82
2022/07/03 01:03:21;;;;;;;6.35;4.08;;;;;;;14.73;65.44;100730.81;1735877;81;21015;-81
2022/07/03 01:08:51;;;;;;;10.13;4.20;;;;;;;14.66;65.75;100726.53;1737056;81;21923;-81
2022/07/03 01:11:50;;;;;;;5.60;3.95;;;;;;;14.63;65.90;100721.50;1737865;81;21028;-77
2022/07/03 01:14:46;;;;;;;6.97;4.35;;;;;;;14.57;65.80;100730.89;1755438;81;21043;-78
2022/07/03 01:17:36;;;;;;;7.08;4.58;;;;;;;14.49;65.74;100730.73;1751953;81;21055;-78
2022/07/03 01:20:04;;;;;;;4.95;4.00;;;;;;;14.46;65.75;100730.16;1746211;81;20973;-78
2022/07/03 01:22:47;;;;;;;7.72;4.65;;;;;;;14.43;65.95;100729.08;1760215;81;22379;-78
2022/07/03 01:25:45;;;;;;;7.62;4.50;;;;;;;14.39;66.07;100735.17;1757658;81;20962;-77
2022/07/03 01:28:14;;;;;;;8.98;4.58;;;;;;;14.36;66.17;100733.26;1769050;79;21000;-82
2022/07/03 01:30:47;;;;;;;7.03;4.72;;;;;;;14.31;66.20;100730.53;1760904;81;21004;-82
2022/07/03 01:33:19;;;;;;;7.58;4.37;;;;;;;14.28;66.21;100727.30;1748701;81;21577;-82
2022/07/03 01:36:07;;;;;;;8.18;4.30;;;;;;;14.22;66.25;100724.72;1762988;81;21947;-80
2022/07/03 01:38:35;;;;;;;5.50;4.35;;;;;;;14.18;66.44;100723.28;1750046;81;21589;-81
2022/07/03 01:41:05;;;;;;;10.45;4.35;;;;;;;14.13;66.50;100720.70;1747964;80;20957;-81
2022/07/03 01:43:35;;;;;;;6.30;4.62;;;;;;;14.07;66.59;100720.75;1741515;81;21423;-81
2022/07/03 01:46:03;;;;;;;10.32;4.70;;;;;;;14.02;66.67;100715.02;1737955;81;20960;-81
2022/07/03 01:48:32;;;;;;;7.03;4.35;;;;;;;14.01;66.83;100710.69;1758699;81;21840;-81
2022/07/03 01:50:59;;;;;;;5.95;4.40;;;;;;;13.99;67.04;100704.19;1738928;81;21004;-82
2022/07/03 01:53:28;;;;;;;6.62;4.53;;;;;;;13.98;67.15;100703.80;1762346;81;20941;-82
2022/07/03 01:55:59;;;;;;;7.80;4.62;;;;;;;13.97;67.23;100702.13;1751890;81;21055;-81
2022/07/03 01:58:26;;;;;;;7.58;5.20;;;;;;;13.94;67.28;100698.91;1750248;81;21005;-83
2022/07/03 02:01:27;;;;;;;9.13;4.50;;;;;;;13.91;67.45;100696.05;1746525;81;21942;-82
2022/07/03 02:04:05;;;;;;;7.87;4.40;;;;;;;13.89;67.56;100695.33;1748388;81;20969;-80
2022/07/03 02:06:42;;;;;;;7.30;4.70;;;;;;;13.87;67.68;100704.41;1668721;84;20967;-79
2022/07/03 02:09:11;;;;;;;8.70;4.40;;;;;;;13.83;67.76;100703.84;1666489;85;21030;-79
2022/07/03 02:11:43;;;;;;;13.93;4.58;;;;;;;13.81;67.80;100707.63;1756307;81;21036;-78
2022/07/03 02:14:25;;;;;;;7.97;5.10;;;;;;;13.78;67.90;100706.05;1691751;84;21951;-81
2022/07/03 02:17:20;;;;;;;7.22;4.50;;;;;;;13.79;68.00;100708.22;1743458;81;20949;-79
2022/07/03 02:20:00;;;;;;;6.10;4.70;;;;;;;13.77;68.07;100706.19;1689298;84;21063;-79
2022/07/03 02:22:31;;;;;;;7.58;4.80;;;;;;;13.76;68.13;100706.68;1747542;79;21625;-79
2022/07/03 02:25:08;;;;;;;10.38;4.40;;;;;;;13.75;68.14;100706.33;1690828;84;21065;-79
2022/07/03 02:27:57;;;;;;;9.05;4.70;;;;;;;13.73;68.19;100706.47;1747817;81;21734;-79
2022/07/03 02:30:24;;;;;;;10.05;4.33;;;;;;;13.71;68.22;100703.61;1684393;84;20970;-80
2022/07/03 02:32:52;;;;;;;5.70;4.50;;;;;;;13.70;68.28;100697.91;1689748;83;21014;-79
2022/07/03 02:35:27;;;;;;;6.37;3.90;;;;;;;13.70;68.33;100693.47;1740799;81;21515;-79
2022/07/03 02:38:14;;;;;;;8.68;4.37;;;;;;;13.70;68.32;100698.78;1697530;83;21524;-79
2022/07/03 02:41:10;;;;;;;8.55;4.65;;;;;;;13.70;68.27;100701.89;1707238;83;21868;-79
2022/07/03 02:44:03;;;;;;;5.53;3.83;;;;;;;13.73;68.29;100699.83;1696307;83;21113;-79
2022/07/03 02:47:17;;;;;;;7.35;4.33;;;;;;;13.70;68.32;100704.09;1698282;83;21417;-79
2022/07/03 02:50:08;;;;;;;6.75;4.00;;;;;;;13.70;68.51;100706.75;1701952;83;21047;-79
2022/07/03 02:52:49;;;;;;;7.92;4.00;;;;;;;13.71;68.67;100706.26;1699489;83;21033;-79
2022/07/03 02:55:45;;;;;;;5.65;3.85;;;;;;;13.72;68.73;100702.63;1709928;83;21950;-79
2022/07/03 02:58:50;;;;;;;9.15;4.22;;;;;;;13.75;68.86;100702.34;1709996;83;20985;-79
2022/07/03 03:01:38;;;;;;;8.75;4.08;;;;;;;13.79;68.91;100706.41;1673763;84;21171;-81
2022/07/03 03:04:21;;;;;;;7.62;4.25;;;;;;;13.82;69.10;100707.97;1749422;81;20965;-81
2022/07/03 03:06:55;;;;;;;6.47;4.05;;;;;;;13.86;69.22;100714.19;1679789;84;21004;-82
2022/07/03 03:09:27;;;;;;;6.27;4.40;;;;;;;13.89;69.27;100717.89;1756855;81;21827;-82
2022/07/03 03:12:03;;;;;;;8.75;4.20;;;;;;;13.93;69.38;100705.20;1738981;81;20951;-81
2022/07/03 03:14:42;;;;;;;7.92;4.37;;;;;;;14.00;69.42;100705.87;1731885;81;20995;-81
2022/07/03 03:17:12;;;;;;;6.83;4.08;;;;;;;14.07;69.45;100704.81;1728706;80;21015;-82
2022/07/03 03:19:41;;;;;;;9.35;4.33;;;;;;;14.16;69.58;100709.80;1754904;81;21110;-82
2022/07/03 03:22:35;;;;;;;6.72;4.00;;;;;;;14.23;69.54;100705.14;1736070;80;21858;-81
2022/07/03 03:25:04;;;;;;;7.60;4.10;;;;;;;14.32;69.48;100706.97;1728268;81;20992;-81
2022/07/03 03:27:31;;;;;;;5.53;4.00;;;;;;;14.44;69.42;100709.00;1734979;81;21014;-82
2022/07/03 03:29:58;;;;;;;9.58;4.40;;;;;;;14.54;69.21;100703.73;1727409;81;21133;-81
2022/07/03 03:32:25;;;;;;;9.55;4.25;;;;;;;14.66;69.08;100710.58;1733545;81;20959;-82
2022/07/03 03:34:52;;;;;;;7.25;4.67;;;;;;;14.78;68.93;100709.48;1732537;81;21929;-82
2022/07/03 03:37:18;;;;;;;6.80;4.58;;;;;;;14.91;68.76;100709.67;1731304;81;20999;-81
2022/07/03 03:39:45;;;;;;;9.00;4.55;;;;;;;15.03;68.74;100713.85;1736938;81;20940;-82
2022/07/03 03:42:11;;;;;;;6.92;4.17;;;;;;;15.15;68.73;100715.36;1732866;81;21012;-81
2022/07/03 03:44:39;;;;;;;8.78;4.37;;;;;;;15.27;68.58;100712.91;1749494;81;21098;-81
2022/07/03 03:47:06;;;;;;;7.15;4.30;;;;;;;15.38;68.38;100713.23;1737083;81;21915;-81
2022/07/03 03:49:32;;;;;;;10.43;4.83;;;;;;;15.50;68.21;100716.06;1750289;81;21023;-82
2022/07/03 03:51:58;;;;;;;7.45;4.33;;;;;;;15.62;68.20;100718.91;1744457;80;21094;-82
2022/07/03 03:54:32;;;;;;;8.35;4.25;;;;;;;15.76;68.19;100718.11;1747053;81;20956;-81
2022/07/03 03:57:24;;;;;;;6.70;4.65;;;;;;;15.88;68.08;100712.43;1741078;81;21055;-80
2022/07/03 03:59:51;;;;;;;10.25;4.40;;;;;;;16.01;67.83;100706.25;1715304;81;21835;-78
2022/07/03 04:02:18;;;;;;;7.42;4.55;;;;;;;16.16;67.53;100708.43;1737162;81;20979;-78
2022/07/03 04:04:45;;;;;;;5.87;4.12;;;;;;;16.26;67.30;100711.37;1718244;81;21383;-78
2022/07/03 04:07:11;;;;;;;8.58;4.58;;;;;;;16.37;66.96;100716.98;1749070;80;21352;-78
2022/07/03 04:09:39;;;;;;;8.08;4.83;;;;;;;16.52;66.93;100719.98;1774532;79;20995;-77
2022/07/03 04:12:06;;;;;;;7.72;4.62;;;;;;;16.66;67.20;100717.27;1697736;82;21937;-78
2022/07/03 04:14:34;;;;;;;5.92;4.30;;;;;;;16.80;67.20;100718.11;1721317;81;22143;-77
2022/07/03 04:17:01;;;;;;;9.30;4.65;;;;;;;16.95;66.94;100716.55;1742280;81;20998;-78
2022/07/03 04:19:27;;;;;;;7.55;4.80;;;;;;;17.08;66.83;100718.34;1743194;82;20989;-77
2022/07/03 04:21:54;;;;;;;7.50;5.00;;;;;;;17.23;66.96;100713.25;1731029;80;21071;-77
2022/07/03 04:24:20;;;;;;;6.67;5.25;;;;;;;17.36;67.09;100714.16;1728545;82;21979;-79
2022/07/03 04:26:47;;;;;;;8.35;5.42;;;;;;;17.48;67.17;100703.58;1699009;82;21011;-78
2022/07/03 04:29:13;;;;;;;8.00;4.67;;;;;;;17.62;66.99;100700.80;1723790;82;20961;-78
2022/07/03 04:31:40;;;;;;;8.38;4.00;;;;;;;17.74;66.69;100702.22;1716832;82;21017;-79
2022/07/03 04:34:06;;;;;;;6.10;3.50;;;;;;;17.88;66.07;100699.45;1727461;82;21048;-80
2022/07/03 04:36:33;;;;;;;4.70;3.42;;;;;;;18.00;65.12;100698.16;1740442;82;21837;-79
2022/07/03 04:39:00;;;;;;;5.65;3.22;;;;;;;18.15;64.23;100697.05;1716524;82;20997;-83
2022/07/03 04:41:26;;;;;;;6.37;3.30;;;;;;;18.29;63.47;100697.23;1716687;82;21090;-83
2022/07/03 04:43:52;;;;;;;5.67;3.20;;;;;;;18.43;62.84;100702.46;1672218;84;21687;-83
2022/07/03 04:46:19;;;;;;;3.10;2.50;;;;;;;18.57;61.83;100701.80;1723712;81;21024;-83
2022/07/03 04:48:45;;;;;;;5.03;2.72;;;;;;;18.74;60.13;100700.01;1735838;82;21573;-83
2022/07/03 04:51:12;;;;;;;6.85;3.67;;;;;;;18.93;59.70;100698.84;1735159;81;21446;-83
2022/07/03 04:53:39;;;;;;;7.17;4.10;;;;;;;19.08;60.08;100700.31;1720966;82;21456;-83
2022/07/03 04:56:05;;;;;;;7.22;4.37;;;;;;;19.22;60.33;100702.33;1716586;82;21529;-83
2022/07/03 04:58:32;;;;;;;8.38;4.35;;;;;;;19.34;60.41;100700.12;1719977;82;21008;-83
2022/07/03 05:00:58;;;;;;;8.23;4.22;;;;;;;19.47;60.64;100699.58;1723086;82;21917;-83
2022/07/03 05:03:25;;;;;;;6.75;4.03;;;;;;;19.57;60.54;100698.91;1735201;80;21071;-82
2022/07/03 05:05:52;;;;;;;6.58;4.20;;;;;;;19.67;60.61;100704.91;1723605;82;21121;-82
2022/07/03 05:08:20;;;;;;;6.28;3.58;;;;;;;19.77;60.18;100700.17;1722829;82;21043;-81
2022/07/03 05:10:46;;;;;;;8.35;3.83;;;;;;;19.89;59.65;100700.15;1741597;82;21094;-81
2022/07/03 05:13:13;;;;;;;8.30;3.77;;;;;;;20.02;59.70;100698.23;1748670;81;21690;-81
2022/07/03 05:15:40;;;;;;;9.68;3.40;;;;;;;20.13;59.35;100698.34;1754514;81;20988;-81
2022/07/03 05:18:06;;;;;;;6.40;3.92;;;;;;;20.24;59.00;100692.58;1716685;82;21072;-81
2022/07/03 05:20:34;;;;;;;7.92;3.83;;;;;;;20.33;58.76;100696.88;1743908;79;21068;-81
2022/07/03 05:23:02;;;;;;;6.67;3.58;;;;;;;20.43;58.69;100697.52;1758445;81;20992;-81
2022/07/03 05:25:30;;;;;;;4.42;3.33;;;;;;;20.52;58.57;100700.98;1743564;81;21932;-81
2022/07/03 05:27:58;;;;;;;6.92;3.55;;;;;;;20.62;58.65;100703.43;1763752;81;21677;-81
2022/07/03 05:30:25;;;;;;;11.63;3.70;;;;;;;20.72;58.67;100705.37;1764413;81;20957;-81
2022/07/03 05:32:54;;;;;;;8.13;3.67;;;;;;;20.80;57.97;100700.77;1744668;81;22057;-81
2022/07/03 05:35:20;;;;;;;6.12;3.35;;;;;;;20.88;57.66;100697.70;1690576;84;21046;-81
2022/07/03 05:37:47;;;;;;;5.05;3.52;;;;;;;20.94;57.51;100700.50;1763852;81;21799;-81
2022/07/03 05:40:13;;;;;;;6.60;3.45;;;;;;;21.02;57.54;100703.60;1691333;84;21077;-80
2022/07/03 05:42:40;;;;;;;5.55;3.30;;;;;;;21.08;57.20;100701.03;1758643;81;21486;-81
2022/07/03 05:45:08;;;;;;;4.45;3.20;;;;;;;21.20;56.38;100697.89;1665666;85;21355;-81
2022/07/03 05:47:35;;;;;;;4.50;3.45;;;;;;;21.31;56.13;100701.51;1749171;81;21024;-81
2022/07/03 05:50:01;;;;;;;4.97;2.60;;;;;;;21.42;54.54;100692.50;1690435;84;21811;-81
2022/07/03 05:52:28;;;;;;;4.75;2.87;;;;;;;21.54;53.51;100688.02;1693502;83;21117;-81
2022/07/03 05:54:54;;;;;;;3.95;3.05;;;;;;;21.64;53.07;100681.33;1747041;81;20988;-77
2022/07/03 05:57:21;;;;;;;7.35;2.67;;;;;;;21.76;52.31;100681.69;1688866;84;21372;-79
2022/07/03 05:59:47;;;;;;;5.25;3.55;;;;;;;21.86;51.18;100686.77;1757855;81;21431;-79
2022/07/03 06:02:15;;;;;;;5.03;2.85;;;;;;;21.95;50.42;100688.34;1680506;84;22589;-80
2022/07/03 06:04:41;;;;;;;4.42;2.40;;;;;;;22.01;50.05;100682.22;1739871;81;20985;-81
2022/07/03 06:07:08;;;;;;;3.98;2.40;;;;;;;22.15;49.38;100679.19;1672321;84;21024;-81
2022/07/03 06:09:36;;;;;;;5.62;2.02;;;;;;;22.24;48.41;100682.08;1758673;81;21335;-79
2022/07/03 06:12:03;;;;;;;4.15;2.40;;;;;;;22.34;47.18;100679.08;1746499;80;21024;-81
2022/07/03 06:14:30;;;;;;;2.72;1.80;;;;;;;22.41;46.32;100674.61;1738641;80;21876;-81
2022/07/03 06:16:56;;;;;;;3.17;1.90;;;;;;;22.50;45.80;100672.95;1728169;81;21149;-80
2022/07/03 06:19:23;;;;;;;2.85;2.00;;;;;;;22.60;42.75;100673.97;1739707;81;20949;-84
2022/07/03 06:21:50;;;;;;;2.00;1.80;;;;;;;22.69;42.56;100674.67;1746058;81;21693;-83
2022/07/03 06:24:16;;;;;;;4.10;1.65;;;;;;;22.75;42.69;100673.88;1733716;81;21613;-79
2022/07/03 06:26:43;;;;;;;2.65;1.80;;;;;;;22.84;42.22;100672.75;1740085;81;21985;-80
2022/07/03 06:29:10;;;;;;;3.50;1.77;;;;;;;22.94;42.24;100670.55;1742554;81;21062;-81
2022/07/03 06:31:36;;;;;;;3.50;2.08;;;;;;;23.02;41.21;100662.84;1737644;81;21031;-84
2022/07/03 06:34:03;;;;;;;4.85;2.10;;;;;;;23.12;41.01;100665.52;1740498;80;21383;-83
2022/07/03 06:36:30;;;;;;;4.00;1.95;;;;;;;23.19;41.26;100672.82;1737324;79;21517;-82
2022/07/03 06:38:57;;;;;;;3.10;1.95;;;;;;;23.24;41.70;100669.83;1728890;81;21816;-81
2022/07/03 06:41:23;;;;;;;3.85;2.30;;;;;;;23.32;41.40;100665.64;1738191;81;20932;-79
2022/07/03 06:43:50;;;;;;;2.98;2.00;;;;;;;23.37;41.27;100662.38;1733624;81;21430;-80
2022/07/03 06:46:16;;;;;;;4.37;1.95;;;;;;;23.41;41.68;100666.32;1737077;81;21493;-79
2022/07/03 06:48:42;;;;;;;5.20;2.08;;;;;;;23.50;42.04;100657.56;1740928;81;20944;-81
2022/07/03 06:51:09;;;;;;;5.83;2.10;;;;;;;23.58;41.68;100649.31;1740828;81;21972;-78
2022/07/03 06:53:36;;;;;;;2.42;2.00;;;;;;;23.65;41.68;100648.86;1734456;80;21460;-83
2022/07/03 06:56:03;;;;;;;3.22;2.30;;;;;;;23.72;41.54;100655.62;1743200;80;20972;-82
2022/07/03 06:58:29;;;;;;;4.87;1.90;;;;;;;23.79;41.00;100653.78;1697367;82;20987;-85
2022/07/03 07:00:56;;;;;;;7.53;4.30;;;;;;;23.85;41.76;100651.64;1689398;83;21038;-86
2022/07/03 07:03:22;;;;;;;3.72;2.67;;;;;;;23.95;43.29;100640.78;1677063;83;21855;-87
2022/07/03 07:05:49;;;;;;;2.58;2.15;;;;;;;24.05;42.53;100638.22;1728712;81;21037;-81
2022/07/03 07:08:16;;;;;;;3.42;2.98;;;;;;;24.12;42.17;100639.05;1733181;81;21407;-83
2022/07/03 07:10:42;;;;;;;3.67;1.90;;;;;;;24.18;42.63;100646.34;1730645;82;21095;-82
2022/07/03 07:13:09;;;;;;;2.87;2.00;;;;;;;24.26;42.67;100642.94;1732550;80;20988;-81
2022/07/03 07:15:35;;;;;;;4.40;1.82;;;;;;;24.39;43.16;100644.84;1738287;81;21986;-82
2022/07/03 07:18:02;;;;;;;4.35;2.00;;;;;;;24.52;42.98;100641.35;1737069;81;21007;-82
2022/07/03 07:20:29;;;;;;;6.25;2.08;;;;;;;24.60;41.55;100645.70;1732869;81;21001;-80
2022/07/03 07:22:56;;;;;;;3.62;2.20;;;;;;;24.52;40.85;100636.78;1740615;80;21012;-80
2022/07/03 07:25:22;;;;;;;4.80;2.30;;;;;;;24.43;40.42;100636.66;1737982;81;21537;-78
2022/07/03 07:27:49;;;;;;;2.50;1.85;;;;;;;24.37;40.92;100638.00;1737135;81;21932;-80
2022/07/03 07:30:15;;;;;;;6.58;2.12;;;;;;;24.42;41.57;100630.13;1733349;81;20972;-77
2022/07/03 07:32:42;;;;;;;5.85;2.00;;;;;;;24.49;40.07;100636.34;1736040;81;20996;-77
2022/07/03 07:35:08;;;;;;;10.72;8.20;;;;;;;24.46;40.06;100636.77;1729315;80;21003;-77
2022/07/03 07:37:35;;;;;;;4.55;2.83;;;;;;;24.46;40.35;100636.25;1725714;81;21066;-78
2022/07/03 07:40:02;;;;;;;4.33;2.95;;;;;;;24.50;40.44;100640.18;1736684;81;22541;-79
2022/07/03 07:42:29;;;;;;;4.62;2.33;;;;;;;24.57;40.14;100640.72;1739300;81;20987;-80
2022/07/03 07:44:56;;;;;;;11.18;9.15;;;;;;;24.64;40.10;100637.51;1747220;81;21000;-82
2022/07/03 07:47:22;;;;;;;4.12;3.72;;;;;;;24.70;40.01;100633.96;1746937;81;21043;-78
2022/07/03 07:49:50;;;;;;;3.50;2.20;;;;;;;24.77;40.30;100636.15;1738332;81;21047;-76
2022/07/03 07:52:17;;;;;;;4.90;2.42;;;;;;;24.86;40.35;100638.13;1740498;81;22442;-82
2022/07/03 07:54:43;;;;;;;4.05;1.87;;;;;;;24.95;40.03;100631.47;1734540;80;21044;-80
2022/07/03 07:57:10;;;;;;;4.37;1.90;;;;;;;25.02;40.24;100630.45;1730994;80;21051;-80
2022/07/03 07:59:36;;;;;;;4.12;1.95;;;;;;;25.15;41.23;100622.00;1730170;81;20999;-82
2022/07/03 08:07:33;;;;;;;4.30;2.00;;;;;;;25.48;39.38;100617.84;1754821;80;21407;-86
2022/07/03 08:10:00;;;;;;;6.65;4.25;;;;;;;25.54;39.31;100625.95;1739529;81;20974;-84
2022/07/03 08:12:26;;;;;;;7.35;2.35;;;;;;;25.63;39.95;100619.25;1744776;81;21094;-78
2022/07/03 08:14:53;;;;;;;4.92;2.17;;;;;;;25.76;39.96;100619.73;1747723;81;21447;-80
2022/07/03 08:17:19;;;;;;;10.85;2.10;;;;;;;25.85;39.55;100618.97;1742540;81;21927;-77
2022/07/03 08:19:47;;;;;;;4.80;1.77;;;;;;;25.86;38.04;100620.63;1757866;81;20957;-80
2022/07/03 08:22:14;;;;;;;5.55;1.70;;;;;;;25.76;37.79;100619.73;1747789;81;21075;-77
2022/07/03 08:24:40;;;;;;;3.12;1.92;;;;;;;25.68;38.37;100615.92;1759209;79;21004;-74
2022/07/03 08:27:07;;;;;;;3.33;1.85;;;;;;;25.62;37.91;100616.25;1757070;81;21503;-73
2022/07/03 08:29:33;;;;;;;4.10;2.15;;;;;;;25.62;38.33;100623.00;1757256;81;21793;-75
2022/07/03 08:31:59;;;;;;;3.87;2.00;;;;;;;25.58;37.85;100610.14;1756900;81;21087;-81
2022/07/03 08:34:26;;;;;;;3.65;2.00;;;;;;;25.55;38.47;100618.14;1758364;79;21098;-74
2022/07/03 08:36:53;;;;;;;8.25;2.60;;;;;;;25.64;39.33;100611.44;1755677;81;21028;-78
2022/07/03 08:39:20;;;;;;;7.20;2.10;;;;;;;25.80;39.37;100612.05;1754071;81;21015;-80
2022/07/03 08:41:46;;;;;;;2.60;2.00;;;;;;;25.97;39.91;100613.20;1753506;81;21535;-75
2022/07/03 08:44:13;;;;;;;4.85;2.30;;;;;;;26.17;39.44;100615.80;1740025;81;21499;-74
2022/07/03 08:46:40;;;;;;;3.83;2.10;;;;;;;26.30;38.65;100609.45;1756625;81;21071;-75
2022/07/03 08:49:07;;;;;;;5.20;2.30;;;;;;;26.39;38.98;100612.23;1752745;81;21386;-79
2022/07/03 08:51:36;;;;;;;3.87;2.10;;;;;;;26.47;38.67;100607.90;1747619;81;21075;-74
2022/07/03 08:54:05;;;;;;;3.20;1.92;;;;;;;26.55;38.44;100604.92;1739536;81;21922;-74
2022/07/03 08:56:32;;;;;;;3.65;2.00;;;;;;;26.63;38.35;100614.11;1749111;81;21586;-73
2022/07/03 08:58:58;;;;;;;8.55;2.30;;;;;;;26.71;38.23;100608.94;1768497;81;21063;-73
2022/07/03 09:01:26;;;;;;;6.22;2.02;;;;;;;26.80;38.06;100608.44;1749666;81;21241;-74
2022/07/03 09:03:52;;;;;;;4.28;1.92;;;;;;;26.92;37.55;100606.34;1740614;81;21428;-74
2022/07/03 09:06:19;;;;;;;2.50;1.90;;;;;;;26.94;36.96;100602.38;1746632;81;22534;-75
2022/07/03 09:08:46;;;;;;;3.80;2.00;;;;;;;27.03;36.82;100605.66;1760331;81;21318;-74
2022/07/03 09:11:13;;;;;;;4.60;2.02;;;;;;;27.10;36.06;100607.76;1754056;81;20961;-73
2022/07/03 09:13:41;;;;;;;2.90;1.95;;;;;;;27.07;35.92;100601.44;1750465;81;21087;-75
2022/07/03 09:16:16;;;;;;;5.53;1.85;;;;;;;27.05;36.81;100598.95;1723190;82;21055;-73
2022/07/03 09:18:44;;;;;;;4.92;2.10;;;;;;;27.17;35.96;100603.10;1735942;82;21416;-75
2022/07/03 09:21:11;;;;;;;4.97;1.95;;;;;;;27.31;34.81;100601.92;1723079;82;21769;-75
2022/07/03 09:23:42;;;;;;;3.05;2.10;;;;;;;27.44;34.94;100600.92;1706999;84;21421;-80
2022/07/03 09:26:16;;;;;;;2.05;1.72;;;;;;;27.53;35.12;100603.63;1722214;82;21566;-80
2022/07/03 09:28:47;;;;;;;3.40;1.60;;;;;;;27.69;34.58;100595.41;1713915;82;20945;-79
2022/07/03 09:31:16;;;;;;;5.85;1.98;;;;;;;27.85;34.07;100598.03;1708407;82;21952;-79
2022/07/03 09:33:58;;;;;;;3.55;1.80;;;;;;;28.01;33.07;100596.03;1721386;82;21393;-79
2022/07/03 09:36:47;;;;;;;4.10;1.80;;;;;;;28.07;32.76;100594.27;1727049;82;20957;-78
2022/07/03 09:39:26;;;;;;;3.27;1.82;;;;;;;28.18;32.13;100594.32;1707832;84;21337;-80
2022/07/03 09:42:09;;;;;;;2.60;1.57;;;;;;;28.24;32.31;100591.19;1710106;82;20957;-78
2022/07/03 09:44:41;;;;;;;5.67;2.10;;;;;;;28.24;30.13;100588.47;1737179;82;21958;-81
2022/07/03 09:47:24;;;;;;;2.08;1.52;;;;;;;28.22;31.67;100590.06;1737152;82;21036;-77
2022/07/03 09:49:59;;;;;;;3.70;1.70;;;;;;;28.34;30.46;100581.97;1737360;82;21024;-77
2022/07/03 09:52:45;;;;;;;2.27;1.57;;;;;;;28.42;29.07;100581.62;1737189;82;20961;-80
2022/07/03 09:55:16;;;;;;;1.60;1.50;;;;;;;28.45;29.43;100581.15;1708007;84;20957;-78
2022/07/03 09:57:52;;;;;;;3.52;1.55;;;;;;;28.45;30.07;100585.23;1696700;84;21846;-81
2022/07/03 10:00:23;;;;;;;5.62;1.60;;;;;;;28.45;29.87;100576.25;1707974;82;20878;-80
2022/07/03 10:03:06;;;;;;;3.92;1.77;;;;;;;28.51;30.23;100575.33;1709701;82;21055;-80
2022/07/03 10:05:41;;;;;;;2.83;1.60;;;;;;;28.62;29.98;100569.59;1708235;84;20964;-80
2022/07/03 10:08:18;;;;;;;2.47;1.90;;;;;;;28.71;29.75;100570.37;1726171;81;21044;-82
2022/07/03 10:10:47;;;;;;;4.72;1.65;;;;;;;28.74;31.68;100571.25;1721551;82;21809;-81
2022/07/03 10:13:14;;;;;;;3.40;1.80;;;;;;;28.93;31.35;100564.36;1734999;82;20958;-81
2022/07/03 10:15:41;;;;;;;3.70;1.90;;;;;;;29.15;30.71;100562.69;1765705;81;21040;-81
2022/07/03 10:18:11;;;;;;;5.53;1.65;;;;;;;29.32;29.84;100551.86;1770082;80;21009;-79
2022/07/03 10:20:48;;;;;;;3.20;1.60;;;;;;;29.44;30.45;100554.04;1769285;79;21031;-79
2022/07/03 10:23:22;;;;;;;5.72;1.80;;;;;;;29.44;30.45;100554.04;1770182;81;22693;-84
2022/07/03 10:25:51;;;;;;;3.45;1.80;;;;;;;29.70;29.63;100562.18;1718951;82;21495;-82
2022/07/03 10:28:18;;;;;;;3.40;1.70;;;;;;;29.91;28.97;100553.84;1757484;81;21032;-82
2022/07/03 10:30:47;;;;;;;2.22;1.70;;;;;;;30.04;29.70;100554.09;1734672;81;21017;-81
2022/07/03 10:33:14;;;;;;;2.02;1.40;;;;;;;30.22;28.79;100553.90;1739264;82;20956;-81
2022/07/03 10:35:52;;;;;;;2.47;1.60;;;;;;;30.42;28.61;100549.31;1739677;82;21798;-81
2022/07/03 10:38:40;;;;;;;4.17;1.75;;;;;;;30.59;28.34;100556.92;1739629;82;20992;-82
2022/07/03 10:47:00;;;;;;;2.70;1.72;;;;;;;31.12;27.13;100542.43;1742135;81;21518;-81
2022/07/03 10:49:27;;;;;;;2.52;1.70;;;;;;;31.26;28.18;100554.09;1739561;82;21781;-81
2022/07/03 10:51:57;;;;;;;3.10;1.50;;;;;;;31.45;28.17;100546.95;1737497;81;20961;-81
2022/07/03 10:54:33;;;;;;;1.62;1.40;;;;;;;31.64;27.33;100548.25;1770230;81;20984;-81
2022/07/03 10:57:05;;;;;;;1.72;1.45;;;;;;;31.85;26.94;100550.71;1770179;81;21004;-81
2022/07/03 10:59:43;;;;;;;3.25;1.30;;;;;;;31.90;25.65;100547.47;1757675;81;26152;-79
2022/07/03 11:02:31;;;;;;;3.15;1.45;;;;;;;31.78;25.39;100548.72;1749873;81;21996;-80
2022/07/03 11:05:04;;;;;;;4.25;1.50;;;;;;;31.51;25.64;100553.58;1753539;81;21000;-81
2022/07/03 11:07:52;;;;;;;1.92;1.30;;;;;;;31.25;26.65;100542.89;1770683;79;20989;-80
2022/07/03 11:10:24;;;;;;;3.35;1.30;;;;;;;31.09;26.77;100547.04;1770264;81;21009;-80
2022/07/03 11:13:09;;;;;;;3.22;1.40;;;;;;;31.12;27.37;100539.16;1770481;81;21051;-81
2022/07/03 11:15:42;;;;;;;2.05;1.40;;;;;;;31.19;27.02;100540.34;1770240;81;21566;-78
2022/07/03 11:18:28;;;;;;;2.60;1.40;;;;;;;31.37;27.00;100545.52;1763897;81;20916;-84
2022/07/03 11:21:16;;;;;;;2.30;1.37;;;;;;;31.57;25.48;100539.46;1740456;81;21024;-76
2022/07/03 11:24:00;;;;;;;1.62;1.40;;;;;;;31.80;24.94;100533.72;1740032;82;20969;-76
2022/07/03 11:26:26;;;;;;;2.58;1.60;;;;;;;31.84;24.35;100538.94;1738597;82;21416;-76
2022/07/03 11:28:53;;;;;;;4.15;1.57;;;;;;;31.80;25.43;100536.98;1732229;81;22442;-77
2022/07/03 11:31:22;;;;;;;1.45;1.30;;;;;;;31.95;26.05;100538.52;1739737;82;21012;-82
2022/07/03 11:33:58;;;;;;;1.57;1.30;;;;;;;32.07;25.29;100538.34;1713008;82;21060;-76
2022/07/03 11:36:30;;;;;;;3.77;1.70;;;;;;;32.29;26.37;100536.33;1762477;81;20993;-77
2022/07/03 11:39:00;;;;;;;;;;;;;;;32.55;24.51;100533.83;1773190;81;20961;-76
2022/07/03 11:41:31;;;;;;;1.50;1.30;;;;;;;32.57;23.94;100530.28;1770087;81;21787;-76
2022/07/03 11:44:03;;;;;;;5.67;1.60;;;;;;;32.59;24.89;100522.08;1769407;81;21008;-77
2022/07/03 11:46:32;;;;;;;4.83;1.35;;;;;;;32.78;24.65;100528.48;1766746;81;20981;-76
2022/07/03 11:49:13;;;;;;;2.17;1.20;;;;;;;32.98;24.56;100528.07;1770486;81;21295;-76
2022/07/03 11:51:45;;;;;;;1.65;1.15;;;;;;;33.19;23.22;100526.79;1743443;81;21007;-76
2022/07/03 11:54:12;;;;;;;2.25;1.32;;;;;;;33.39;22.92;100525.52;1754843;81;22785;-76
2022/07/03 11:56:38;;;;;;;2.42;1.20;;;;;;;33.49;22.06;100522.84;1748510;81;21475;-76